Time;durP1;ratioP1;P1;durP2;ratioP2;P2;SDS_P1;SDS_P2;PMS_P1;PMS_P2;Temp;Humidity;BMP_temperature;BMP_pressure;BME280_temperature;BME280_humidity;BME280_pressure;Samples;Min_cycle;Max_cycle;Signal;HPM_P1;HPM_P2
2023/10/13 00:01:19;;;;;;;18.40;14.20;;;;;;;16.13;100.00;100979.03;5021326;28;20040;-82
2023/10/13 00:03:54;;;;;;;17.85;14.18;;;;;;;16.15;100.00;100975.03;5031514;28;20025;-82
2023/10/13 00:06:19;;;;;;;19.33;14.10;;;;;;;16.08;100.00;100978.91;5033099;28;20045;-82
2023/10/13 00:08:45;;;;;;;18.02;13.75;;;;;;;16.13;100.00;100977.16;5031550;28;20044;-82
2023/10/13 00:11:26;;;;;;;17.48;15.07;;;;;;;16.12;100.00;100971.97;5032471;28;20489;-82
2023/10/13 00:13:53;;;;;;;18.92;13.93;;;;;;;16.14;100.00;100973.38;5034032;28;20074;-83
2023/10/13 00:16:21;;;;;;;17.42;13.75;;;;;;;16.11;100.00;100973.00;5034232;28;20194;-82
2023/10/13 00:18:57;;;;;;;16.35;13.20;;;;;;;16.15;100.00;100956.03;5037149;28;20070;-82
2023/10/13 00:21:31;;;;;;;;;;;;;;;16.09;100.00;100967.78;5047981;28;20029;-82
2023/10/13 00:24:49;;;;;;;17.08;12.80;;;;;;;16.13;100.00;100969.00;5042915;28;19917;-82
2023/10/13 00:27:41;;;;;;;15.65;12.55;;;;;;;16.09;100.00;100962.38;5039199;28;20034;-82
2023/10/13 00:30:22;;;;;;;15.07;12.63;;;;;;;16.02;100.00;100953.50;5036861;28;20065;-82
2023/10/13 00:32:56;;;;;;;15.23;12.20;;;;;;;16.12;100.00;100951.03;5033742;28;20117;-82
2023/10/13 00:35:28;;;;;;;19.38;12.68;;;;;;;16.09;100.00;100954.22;5031878;28;20087;-82
2023/10/13 00:37:54;;;;;;;15.15;11.90;;;;;;;16.16;100.00;100945.97;5030395;28;20477;-82
2023/10/13 00:41:14;;;;;;;15.65;11.50;;;;;;;16.16;100.00;100940.53;5031555;28;20095;-82
2023/10/13 00:46:28;;;;;;;15.27;11.68;;;;;;;16.12;100.00;100945.63;5029375;28;20052;-83
2023/10/13 00:48:58;;;;;;;15.52;11.23;;;;;;;16.10;100.00;100939.59;5030652;28;20033;-83
2023/10/13 00:51:34;;;;;;;15.57;11.10;;;;;;;16.09;100.00;100939.81;5029475;28;20457;-83
2023/10/13 00:54:19;;;;;;;14.32;11.10;;;;;;;16.13;100.00;100941.03;5029877;28;20029;-83
2023/10/13 00:56:48;;;;;;;14.55;10.68;;;;;;;16.11;100.00;100941.25;5030279;28;20040;-83
2023/10/13 00:59:17;;;;;;;15.18;11.30;;;;;;;16.10;100.00;100934.16;5023780;28;20053;-83
2023/10/13 01:01:55;;;;;;;12.55;10.55;;;;;;;16.12;100.00;100925.78;5032659;28;20091;-82
2023/10/13 01:04:23;;;;;;;13.90;11.00;;;;;;;16.13;100.00;100930.16;5034869;28;20451;-83
2023/10/13 01:06:48;;;;;;;14.75;10.85;;;;;;;16.16;100.00;100927.81;5024160;28;20038;-83
2023/10/13 01:09:20;;;;;;;15.68;10.75;;;;;;;16.20;100.00;100920.84;5030932;28;20040;-83
2023/10/13 01:11:52;;;;;;;12.10;10.55;;;;;;;16.17;100.00;100909.59;5031354;28;20566;-83
2023/10/13 01:14:20;;;;;;;14.70;10.63;;;;;;;16.17;100.00;100918.59;5029944;28;20071;-83
2023/10/13 01:17:01;;;;;;;15.55;11.38;;;;;;;16.03;100.00;100917.16;5031061;28;20037;-83
2023/10/13 01:19:29;;;;;;;13.00;10.80;;;;;;;16.11;100.00;100916.78;5032974;28;20060;-83
2023/10/13 01:22:02;;;;;;;13.52;10.65;;;;;;;16.16;100.00;100914.22;5035385;28;20095;-83
2023/10/13 01:24:31;;;;;;;16.77;10.63;;;;;;;16.15;100.00;100917.19;5014423;28;20045;-83
2023/10/13 01:26:57;;;;;;;13.63;11.10;;;;;;;16.18;100.00;100911.25;5036766;28;20029;-82
2023/10/13 01:29:29;;;;;;;12.48;10.32;;;;;;;16.23;100.00;100905.16;5035908;28;20033;-83
2023/10/13 01:31:54;;;;;;;15.23;10.80;;;;;;;16.24;100.00;100901.38;5034820;28;20025;-83
2023/10/13 01:34:22;;;;;;;14.63;10.45;;;;;;;16.24;100.00;100899.47;5035107;28;20029;-83
2023/10/13 01:37:05;;;;;;;14.80;10.98;;;;;;;16.17;100.00;100893.31;5037542;28;20021;-83
2023/10/13 01:39:31;;;;;;;12.15;10.23;;;;;;;16.25;100.00;100900.28;5034541;28;20497;-82
2023/10/13 01:41:56;;;;;;;12.35;10.32;;;;;;;16.23;100.00;100897.00;5033314;28;20041;-79
2023/10/13 01:44:23;;;;;;;12.15;10.32;;;;;;;16.21;100.00;100891.78;5033825;28;20037;-79
2023/10/13 01:46:48;;;;;;;14.00;10.27;;;;;;;16.25;100.00;100875.84;5033507;28;20030;-79
2023/10/13 01:49:17;;;;;;;12.57;10.40;;;;;;;16.21;100.00;100881.75;5043516;28;20029;-79
2023/10/13 01:51:42;;;;;;;12.55;10.05;;;;;;;16.15;100.00;100874.53;5056061;28;20060;-79
2023/10/13 01:54:11;;;;;;;13.30;10.07;;;;;;;16.15;100.00;100873.72;5054665;28;20465;-79
2023/10/13 01:56:42;;;;;;;12.73;10.02;;;;;;;16.21;100.00;100856.47;5053942;28;20155;-79
2023/10/13 01:59:09;;;;;;;11.77;9.30;;;;;;;16.10;100.00;100849.16;5033828;28;20478;-79
2023/10/13 02:01:34;;;;;;;10.55;8.95;;;;;;;16.18;100.00;100848.78;5036567;28;20497;-77
2023/10/13 02:04:02;;;;;;;12.43;9.13;;;;;;;16.09;100.00;100853.75;5047559;28;20495;-76
2023/10/13 02:06:37;;;;;;;10.60;9.20;;;;;;;16.18;100.00;100849.63;5043060;28;20044;-77
2023/10/13 02:09:12;;;;;;;11.00;8.43;;;;;;;16.20;100.00;100844.81;5039292;28;20032;-77
2023/10/13 02:11:41;;;;;;;12.40;8.50;;;;;;;16.20;100.00;100843.94;5036314;28;20115;-77
2023/10/13 02:14:07;;;;;;;10.07;8.38;;;;;;;16.20;100.00;100842.09;5036385;28;20045;-77
2023/10/13 02:16:32;;;;;;;10.07;8.07;;;;;;;16.18;100.00;100837.94;5033718;28;20449;-77
2023/10/13 02:19:03;;;;;;;10.65;8.35;;;;;;;16.19;100.00;100836.88;5034059;28;20483;-77
2023/10/13 02:21:32;;;;;;;11.05;8.15;;;;;;;16.22;100.00;100836.41;5034048;28;20049;-78
2023/10/13 02:24:03;;;;;;;10.75;8.55;;;;;;;16.23;100.00;100829.91;5030487;28;20461;-78
2023/10/13 02:26:30;;;;;;;11.65;8.88;;;;;;;16.28;100.00;100818.31;5032560;28;20034;-77
2023/10/13 02:29:07;;;;;;;10.35;8.25;;;;;;;16.30;100.00;100822.47;5033325;28;20026;-77
2023/10/13 02:31:34;;;;;;;12.25;8.23;;;;;;;16.31;100.00;100820.56;5038727;28;20112;-78
2023/10/13 02:34:01;;;;;;;10.63;7.95;;;;;;;16.30;100.00;100816.22;5033782;28;20026;-78
2023/10/13 02:36:36;;;;;;;11.25;8.30;;;;;;;16.25;100.00;100813.38;5032479;28;20747;-77
2023/10/13 02:39:07;;;;;;;12.20;8.00;;;;;;;16.27;100.00;100816.69;5030646;28;20474;-77
2023/10/13 02:41:32;;;;;;;10.32;8.20;;;;;;;16.18;100.00;100803.47;5032784;28;20027;-77
2023/10/13 02:43:58;;;;;;;11.93;8.55;;;;;;;16.15;100.00;100811.25;5032353;28;20030;-78
2023/10/13 02:46:28;;;;;;;10.23;7.90;;;;;;;16.20;100.00;100801.34;5030354;28;20489;-78
2023/10/13 02:48:53;;;;;;;10.00;7.53;;;;;;;16.28;100.00;100802.03;5031770;28;20041;-78
2023/10/13 02:51:31;;;;;;;10.82;7.90;;;;;;;16.26;100.00;100796.84;5033595;28;20097;-78
2023/10/13 02:54:02;;;;;;;9.88;7.90;;;;;;;16.23;100.00;100791.88;5036378;28;20421;-78
2023/10/13 02:56:28;;;;;;;12.63;7.80;;;;;;;16.26;100.00;100787.84;5032639;28;20021;-78
2023/10/13 02:58:56;;;;;;;11.70;7.95;;;;;;;16.21;100.00;100786.69;5031125;28;20076;-78
2023/10/13 03:01:28;;;;;;;11.25;8.15;;;;;;;16.23;100.00;100786.44;5033093;28;20026;-78
2023/10/13 03:03:55;;;;;;;10.02;7.63;;;;;;;16.24;100.00;100776.44;5014272;28;20037;-78
2023/10/13 03:06:23;;;;;;;10.60;7.60;;;;;;;16.20;100.00;100773.34;5032897;28;20478;-78
2023/10/13 03:08:54;;;;;;;9.07;7.32;;;;;;;16.18;100.00;100770.88;5034768;28;20036;-78
2023/10/13 03:11:22;;;;;;;11.07;7.47;;;;;;;16.17;100.00;100771.94;5032716;28;20021;-78
2023/10/13 03:13:51;;;;;;;8.45;6.95;;;;;;;16.17;100.00;100773.81;5031473;28;20030;-78
2023/10/13 03:16:16;;;;;;;11.77;7.00;;;;;;;16.17;100.00;100769.22;5031861;28;20041;-78
2023/10/13 03:18:52;;;;;;;10.73;7.25;;;;;;;16.15;100.00;100771.34;5031784;28;20033;-78
2023/10/13 03:21:28;;;;;;;10.55;7.10;;;;;;;16.14;100.00;100764.25;5032937;28;20021;-78
2023/10/13 03:23:54;;;;;;;9.98;6.90;;;;;;;16.12;100.00;100765.56;5032565;28;20021;-79
2023/10/13 03:26:20;;;;;;;10.32;7.13;;;;;;;16.12;100.00;100754.69;5031589;28;20120;-79
2023/10/13 03:28:51;;;;;;;9.60;7.25;;;;;;;16.10;100.00;100757.63;5033444;28;20029;-79
2023/10/13 03:31:27;;;;;;;9.93;7.40;;;;;;;16.14;100.00;100753.38;5013556;28;20030;-79
2023/10/13 03:33:59;;;;;;;;;;;;;;;16.11;100.00;100748.44;5013002;28;20054;-79
2023/10/13 03:39:10;;;;;;;10.32;7.65;;;;;;;16.08;100.00;100724.47;5016494;28;20102;-79
2023/10/13 03:41:38;;;;;;;9.35;7.47;;;;;;;16.10;100.00;100714.19;5030060;28;20485;-79
2023/10/13 03:44:17;;;;;;;11.18;8.60;;;;;;;16.09;100.00;100714.44;5033123;28;20034;-79
2023/10/13 03:46:45;;;;;;;11.98;8.38;;;;;;;16.04;100.00;100707.00;5032262;28;20492;-79
2023/10/13 03:49:12;;;;;;;14.10;8.75;;;;;;;16.04;100.00;100707.00;5032147;28;20112;-79
2023/10/13 03:51:41;;;;;;;12.15;8.52;;;;;;;16.04;100.00;100704.28;5032439;28;20029;-79
2023/10/13 03:54:09;;;;;;;12.95;9.38;;;;;;;16.07;100.00;100703.78;5031542;28;20061;-80
2023/10/13 03:56:40;;;;;;;11.35;8.98;;;;;;;16.02;100.00;100688.22;5030948;28;20098;-79
2023/10/13 03:59:06;;;;;;;11.13;9.48;;;;;;;16.07;100.00;100698.34;5032490;28;20045;-79
2023/10/13 04:04:15;;;;;;;10.85;8.70;;;;;;;16.04;100.00;100688.00;5032762;28;20044;-79
2023/10/13 04:17:23;;;;;;;12.40;9.63;;;;;;;15.98;100.00;100667.22;5031532;28;20235;-79
2023/10/13 04:31:06;;;;;;;11.27;8.27;;;;;;;15.98;100.00;100619.16;5030847;28;20044;-79
2023/10/13 04:33:35;;;;;;;12.52;8.40;;;;;;;15.96;100.00;100625.91;5032316;28;20456;-80
2023/10/13 04:36:36;;;;;;;14.88;8.43;;;;;;;15.95;100.00;100618.81;5030990;28;20371;-80
2023/10/13 04:39:09;;;;;;;11.32;8.07;;;;;;;15.91;100.00;100611.16;5033048;28;20047;-80
2023/10/13 04:47:02;;;;;;;9.27;6.85;;;;;;;15.93;100.00;100586.50;5031838;28;20114;-79
2023/10/13 04:55:17;;;;;;;9.95;6.97;;;;;;;15.89;100.00;100558.97;5028494;28;20044;-80
2023/10/13 06:29:55;;;;;;;6.57;5.68;;;;;;;16.90;100.00;100488.78;5029460;28;20114;-78
2023/10/13 06:32:26;;;;;;;6.88;5.70;;;;;;;16.92;100.00;100483.13;5024636;28;20060;-83
2023/10/13 06:35:22;;;;;;;6.97;5.43;;;;;;;16.89;100.00;100483.63;5028378;28;20489;-84
2023/10/13 06:38:30;;;;;;;7.03;5.55;;;;;;;16.91;100.00;100473.31;5038084;28;20037;-83
2023/10/13 06:49:48;;;;;;;7.93;5.07;;;;;;;16.95;100.00;100486.19;5059861;23;21073;-82
2023/10/13 06:52:23;;;;;;;7.20;4.93;;;;;;;17.02;100.00;100487.94;5037093;23;20053;-84
2023/10/13 06:57:49;;;;;;;6.22;3.97;;;;;;;17.19;100.00;100490.59;5281473;23;20057;-83
2023/10/13 07:00:27;;;;;;;5.70;4.10;;;;;;;17.19;100.00;100477.00;5040302;23;20064;-84
2023/10/13 07:05:59;;;;;;;6.35;4.13;;;;;;;17.29;100.00;100474.44;5035318;23;20085;-82
2023/10/13 07:14:23;;;;;;;7.43;4.30;;;;;;;17.40;100.00;100473.50;5040014;28;20072;-83
2023/10/13 07:17:13;;;;;;;5.35;3.97;;;;;;;17.47;100.00;100488.81;5037024;23;20072;-81
2023/10/13 07:28:22;;;;;;;4.55;3.75;;;;;;;17.43;100.00;100453.09;5031458;28;20076;-81
2023/10/13 07:30:49;;;;;;;6.93;4.38;;;;;;;17.43;100.00;100453.94;5033023;28;20013;-81
2023/10/13 07:33:19;;;;;;;5.50;4.00;;;;;;;17.44;100.00;100449.31;5031363;28;20120;-82
2023/10/13 07:35:46;;;;;;;6.88;4.32;;;;;;;17.43;100.00;100437.63;5031050;28;20104;-80
2023/10/13 07:38:17;;;;;;;4.68;4.18;;;;;;;17.42;100.00;100446.84;5031068;28;20032;-81
2023/10/13 07:40:53;;;;;;;5.20;4.30;;;;;;;17.40;100.00;100440.00;5028912;28;20108;-79
2023/10/13 07:43:21;;;;;;;5.25;4.72;;;;;;;17.42;100.00;100435.97;5026384;28;20030;-79
2023/10/13 07:45:58;;;;;;;11.52;4.60;;;;;;;17.42;100.00;100444.13;5028200;28;20036;-81
2023/10/13 07:51:16;;;;;;;8.50;4.65;;;;;;;17.42;100.00;100435.97;5033376;23;20140;-84
2023/10/13 07:53:48;;;;;;;8.70;4.50;;;;;;;17.42;100.00;100425.09;5052944;23;20045;-84
2023/10/13 07:56:17;;;;;;;7.63;4.15;;;;;;;17.45;100.00;100412.06;5010472;28;20068;-84
2023/10/13 08:01:27;;;;;;;8.38;3.97;;;;;;;17.50;100.00;100401.22;5009336;28;20162;-83
2023/10/13 08:06:36;;;;;;;8.25;4.30;;;;;;;17.54;100.00;100386.88;5010257;28;20034;-83
2023/10/13 08:09:30;;;;;;;6.97;4.05;;;;;;;17.53;100.00;100376.22;5010740;28;20018;-83
2023/10/13 08:12:21;;;;;;;7.82;4.13;;;;;;;17.60;100.00;100379.56;5010717;28;20037;-83
2023/10/13 08:14:46;;;;;;;8.00;4.10;;;;;;;17.68;100.00;100381.81;5009304;28;20022;-80
2023/10/13 08:39:58;;;;;;;11.38;4.53;;;;;;;18.10;100.00;100352.28;5053287;28;20033;-79
2023/10/13 08:43:08;;;;;;;8.75;4.07;;;;;;;18.20;100.00;100351.56;5051922;28;20029;-80
2023/10/13 08:48:12;;;;;;;9.73;3.95;;;;;;;18.40;100.00;100348.16;5053338;28;20224;-78
2023/10/13 08:53:31;;;;;;;6.00;3.97;;;;;;;18.81;100.00;100351.13;5033415;28;20067;-77
2023/10/13 09:01:37;;;;;;;11.05;3.92;;;;;;;19.95;98.58;100319.56;5051332;28;20545;-78
2023/10/13 09:09:40;;;;;;;;;;;;;;;20.92;92.23;100352.53;5049754;28;20397;-77
2023/10/13 09:12:25;;;;;;;10.40;4.28;;;;;;;21.43;89.05;100350.66;5052434;28;20270;-78
2023/10/13 09:14:57;;;;;;;8.75;4.70;;;;;;;21.35;87.04;100328.25;5052359;28;20634;-78
2023/10/13 09:17:38;;;;;;;9.93;4.47;;;;;;;20.96;88.23;100339.09;5054138;28;20044;-78
2023/10/13 09:25:36;;;;;;;12.15;4.50;;;;;;;20.32;89.82;100301.22;5054769;28;20461;-78
2023/10/13 09:28:21;;;;;;;9.73;4.73;;;;;;;20.43;89.93;100307.47;5042655;28;20044;-77
2023/10/13 09:30:56;;;;;;;10.38;4.63;;;;;;;20.36;91.19;100313.25;5051917;28;20372;-77
2023/10/13 09:34:09;;;;;;;11.73;4.43;;;;;;;20.20;90.25;100297.97;5055711;28;20040;-77
2023/10/13 09:36:08;;;;;;;;;;;;;;;20.07;89.73;100283.78;5072896;28;20040;-77
2023/10/13 09:38:40;;;;;;;11.63;4.10;;;;;;;19.99;89.20;100292.50;5086774;28;19916;-78
2023/10/13 09:41:18;;;;;;;10.70;4.60;;;;;;;19.82;92.10;100299.03;5055493;28;20086;-77
2023/10/13 09:43:44;;;;;;;12.73;4.93;;;;;;;19.89;90.86;100285.13;5050986;28;20057;-77
2023/10/13 09:46:17;;;;;;;9.35;4.95;;;;;;;19.89;89.41;100274.22;5048459;28;20044;-77
2023/10/13 09:48:46;;;;;;;12.90;5.00;;;;;;;19.95;89.53;100270.41;5032278;28;20131;-76
2023/10/13 09:51:13;;;;;;;8.10;4.93;;;;;;;19.97;89.03;100287.34;5050893;28;20033;-77
2023/10/13 09:53:38;;;;;;;11.13;5.05;;;;;;;19.97;89.08;100287.34;5051113;28;20096;-76
2023/10/13 09:56:28;;;;;;;9.90;4.88;;;;;;;19.90;88.01;100273.13;5027424;28;20369;-77
2023/10/13 09:59:12;;;;;;;11.52;5.20;;;;;;;19.81;88.43;100286.47;5028755;28;20057;-76
2023/10/13 10:01:50;;;;;;;12.75;5.20;;;;;;;19.72;88.84;100285.41;5018599;28;20029;-76
2023/10/13 10:04:17;;;;;;;11.23;5.22;;;;;;;19.70;88.57;100285.66;5015567;28;20030;-76
2023/10/13 10:06:56;;;;;;;10.02;5.18;;;;;;;19.80;87.63;100284.84;5014752;28;20040;-76
2023/10/13 10:09:43;;;;;;;8.70;5.00;;;;;;;19.80;88.48;100284.03;5036935;28;20025;-78
2023/10/13 10:12:35;;;;;;;11.18;5.18;;;;;;;19.78;87.48;100278.00;5044582;28;20017;-78
2023/10/13 10:15:48;;;;;;;15.68;5.78;;;;;;;19.90;86.69;100269.59;5032751;28;20029;-79
2023/10/13 10:18:25;;;;;;;12.70;5.20;;;;;;;19.96;86.60;100277.50;5051969;28;20031;-78
2023/10/13 10:20:55;;;;;;;12.55;5.50;;;;;;;20.11;84.85;100275.84;5048588;28;20474;-79
2023/10/13 10:23:28;;;;;;;16.08;5.25;;;;;;;20.14;84.78;100286.22;5050179;28;20028;-79
2023/10/13 10:26:04;;;;;;;13.23;5.50;;;;;;;20.25;84.19;100284.31;5049900;28;20135;-78
2023/10/13 10:28:49;;;;;;;;;;;;;;;20.07;84.28;100275.56;5049752;28;20033;-78
2023/10/13 10:31:17;;;;;;;8.93;4.72;;;;;;;20.18;83.98;100278.28;5049687;28;19955;-80
2023/10/13 10:33:42;;;;;;;12.32;5.28;;;;;;;20.22;82.80;100258.31;5049427;28;20083;-78
2023/10/13 10:36:14;;;;;;;12.10;5.28;;;;;;;20.14;83.18;100262.44;5050739;28;20036;-78
2023/10/13 10:38:52;;;;;;;12.60;5.45;;;;;;;20.25;82.18;100241.38;5050718;28;20024;-77
2023/10/13 10:41:25;;;;;;;12.00;5.03;;;;;;;20.24;82.20;100249.88;5051150;28;20025;-79
2023/10/13 10:43:50;;;;;;;14.43;5.80;;;;;;;20.29;82.03;100249.84;5033658;28;20028;-79
2023/10/13 10:46:28;;;;;;;13.85;5.70;;;;;;;20.32;80.21;100234.81;5054397;28;20025;-79
2023/10/13 10:49:00;;;;;;;12.60;5.10;;;;;;;20.36;80.17;100231.22;5028820;28;20042;-80
2023/10/13 10:51:31;;;;;;;13.02;5.40;;;;;;;20.48;79.88;100238.28;5033833;28;20071;-79
2023/10/13 10:53:57;;;;;;;14.13;5.22;;;;;;;20.49;78.57;100224.38;5049884;28;20445;-79
2023/10/13 10:56:24;;;;;;;11.75;5.13;;;;;;;20.55;78.77;100219.69;5050926;28;20017;-79
2023/10/13 10:59:00;;;;;;;10.48;5.00;;;;;;;20.46;78.75;100211.25;5049542;28;20036;-79
2023/10/13 11:01:33;;;;;;;11.07;5.70;;;;;;;20.50;79.02;100208.75;5049094;28;20025;-79
2023/10/13 11:04:07;;;;;;;11.43;5.15;;;;;;;20.50;78.54;100201.41;5049725;28;20110;-79
2023/10/13 11:06:38;;;;;;;13.45;6.00;;;;;;;20.50;79.32;100206.03;5048878;28;20461;-78
2023/10/13 11:09:18;;;;;;;11.02;5.32;;;;;;;20.60;78.11;100206.81;5033845;28;20029;-79
2023/10/13 11:11:52;;;;;;;10.70;5.13;;;;;;;20.64;77.44;100193.41;5061766;28;20493;-78
2023/10/13 11:14:27;;;;;;;12.07;5.45;;;;;;;20.72;77.47;100192.00;5046423;28;20031;-79
2023/10/13 11:20:25;;;;;;;12.65;5.72;;;;;;;21.07;75.16;100173.78;5008632;28;20628;-79
2023/10/13 11:22:52;;;;;;;13.93;6.18;;;;;;;21.14;75.04;100174.25;5185863;23;20013;-80
2023/10/13 11:25:22;;;;;;;12.60;5.80;;;;;;;21.12;74.01;100154.56;5029584;28;20514;-81
2023/10/13 11:33:28;;;;;;;13.27;5.65;;;;;;;21.19;74.41;100168.75;5014143;28;20547;-80
2023/10/13 11:36:15;;;;;;;13.60;5.80;;;;;;;21.16;73.97;100160.28;5029995;28;20029;-80
2023/10/13 11:41:16;;;;;;;10.43;5.32;;;;;;;21.09;73.88;100162.53;5015720;28;20045;-80
2023/10/13 11:46:55;;;;;;;13.90;5.93;;;;;;;21.00;74.71;100170.53;5030525;28;20040;-81
2023/10/13 11:49:17;;;;;;;15.20;6.03;;;;;;;21.01;74.75;100142.88;5027844;28;20091;-80
2023/10/13 11:52:17;;;;;;;8.82;5.45;;;;;;;21.03;74.43;100140.66;5023591;28;20410;-81
2023/10/13 11:54:44;;;;;;;14.27;6.10;;;;;;;21.08;74.60;100148.03;5029618;28;20049;-80
2023/10/13 11:57:10;;;;;;;14.55;5.90;;;;;;;21.16;72.39;100130.19;5025669;28;20026;-80
2023/10/13 11:59:44;;;;;;;11.90;6.00;;;;;;;21.27;73.24;100128.19;5009619;28;20042;-80
2023/10/13 12:04:59;;;;;;;13.38;6.07;;;;;;;21.22;73.13;100131.75;5010346;28;20388;-82
2023/10/13 12:07:45;;;;;;;11.98;6.15;;;;;;;21.27;72.98;100128.19;5009666;28;20423;-80
2023/10/13 12:10:33;;;;;;;11.95;5.95;;;;;;;21.31;73.23;100129.22;5011505;28;20119;-81
2023/10/13 12:13:05;;;;;;;13.20;6.03;;;;;;;21.43;72.23;100121.47;5018253;28;20037;-81
2023/10/13 12:15:38;;;;;;;14.50;5.63;;;;;;;21.47;71.64;100121.69;5028712;28;20080;-82
2023/10/13 12:18:04;;;;;;;13.05;5.88;;;;;;;21.47;71.21;100108.81;5030102;28;20021;-80
2023/10/13 12:20:32;;;;;;;17.33;6.03;;;;;;;21.52;70.65;100099.75;5030212;28;20457;-81
2023/10/13 12:23:31;;;;;;;13.55;5.88;;;;;;;21.54;70.78;100100.25;5029444;28;20699;-80
2023/10/13 12:26:00;;;;;;;14.25;6.13;;;;;;;21.59;70.26;100097.47;5029062;28;20046;-80
2023/10/13 12:28:26;;;;;;;14.65;6.35;;;;;;;21.62;70.53;100098.88;5028750;28;20508;-80
2023/10/13 12:30:53;;;;;;;16.02;6.38;;;;;;;21.62;70.32;100091.44;5030361;28;20083;-80
2023/10/13 12:33:25;;;;;;;15.07;6.18;;;;;;;21.75;68.55;100073.50;5029982;28;20024;-81
2023/10/13 12:36:26;;;;;;;11.60;5.80;;;;;;;21.60;69.34;100081.88;5028498;28;20026;-80
2023/10/13 12:48:55;;;;;;;13.15;6.00;;;;;;;21.74;68.28;100071.03;5010687;28;20128;-81
2023/10/13 12:49:49;;;;;;;13.48;5.60;;;;;;;21.96;67.72;100085.03;5028690;28;20036;-80
2023/10/13 12:52:25;;;;;;;12.00;5.43;;;;;;;21.90;66.07;100086.19;5029804;28;20026;-80
2023/10/13 12:57:25;;;;;;;16.60;5.93;;;;;;;22.15;64.36;100084.25;5028926;28;20076;-80
2023/10/13 12:59:53;;;;;;;16.45;6.25;;;;;;;22.33;64.39;100092.81;5029630;28;20033;-80
2023/10/13 13:02:25;;;;;;;17.83;6.28;;;;;;;22.51;62.96;100094.78;5030480;28;20072;-80
2023/10/13 13:04:57;;;;;;;18.52;6.50;;;;;;;22.51;63.68;100072.84;5029346;28;20030;-80
2023/10/13 13:07:29;;;;;;;15.73;6.30;;;;;;;22.47;63.07;100077.28;5030557;28;20021;-80
2023/10/13 13:09:58;;;;;;;16.88;6.05;;;;;;;22.50;62.74;100084.13;5030268;28;20053;-81
2023/10/13 13:12:24;;;;;;;16.27;6.03;;;;;;;22.48;63.29;100073.44;5029130;28;20021;-80
2023/10/13 13:14:54;;;;;;;20.20;6.47;;;;;;;22.38;63.82;100054.34;5032153;28;20512;-80
2023/10/13 13:17:21;;;;;;;15.25;6.30;;;;;;;22.29;63.72;100064.34;5034436;28;20171;-81
2023/10/13 13:19:46;;;;;;;17.02;5.88;;;;;;;22.29;63.99;100065.16;5034080;28;20041;-80
2023/10/13 13:22:12;;;;;;;18.05;6.47;;;;;;;22.24;64.29;100059.75;5034268;28;20030;-81
2023/10/13 13:24:44;;;;;;;13.85;6.05;;;;;;;22.10;64.52;100052.25;5032844;28;20033;-81
2023/10/13 13:27:13;;;;;;;16.00;6.18;;;;;;;22.17;65.06;100057.38;5032808;28;20494;-81
2023/10/13 13:29:42;;;;;;;18.63;5.93;;;;;;;22.15;64.57;100051.38;5034765;28;20085;-81
2023/10/13 13:32:17;;;;;;;14.57;6.47;;;;;;;22.21;64.76;100055.69;5033681;28;20421;-81
2023/10/13 13:34:44;;;;;;;15.73;6.32;;;;;;;22.24;64.86;100066.03;5033848;28;20112;-79
2023/10/13 13:37:12;;;;;;;18.20;6.03;;;;;;;22.24;65.02;100063.28;5032960;28;20076;-80
2023/10/13 13:39:43;;;;;;;17.92;6.68;;;;;;;22.24;65.06;100052.31;5031635;28;20604;-80
2023/10/13 13:42:09;;;;;;;14.05;5.60;;;;;;;22.14;64.84;100040.72;5054862;28;20028;-80
2023/10/13 13:44:37;;;;;;;20.45;6.40;;;;;;;22.19;65.27;100051.59;5037903;28;20132;-80
2023/10/13 13:47:11;;;;;;;17.38;5.78;;;;;;;22.16;65.43;100049.44;5034119;28;20025;-81
2023/10/13 13:49:40;;;;;;;13.13;5.30;;;;;;;22.21;64.46;100041.97;5032828;28;20060;-82
2023/10/13 13:52:07;;;;;;;17.02;5.70;;;;;;;22.10;64.79;100034.97;5033726;28;20025;-81
2023/10/13 13:54:33;;;;;;;10.15;5.53;;;;;;;22.11;64.79;100045.66;5033102;28;20083;-81
2023/10/13 13:56:59;;;;;;;22.40;5.88;;;;;;;22.05;64.88;100049.56;5034877;28;20056;-81
2023/10/13 13:59:24;;;;;;;15.30;5.50;;;;;;;22.05;65.00;100043.28;5032749;28;20045;-81
2023/10/13 14:01:52;;;;;;;16.35;5.60;;;;;;;22.02;65.38;100041.94;5034422;28;20083;-80
2023/10/13 14:04:31;;;;;;;13.60;5.55;;;;;;;21.98;65.15;100040.09;5035307;28;20037;-81
2023/10/13 14:06:56;;;;;;;18.13;5.70;;;;;;;21.97;64.96;100033.81;5034461;28;20113;-80
2023/10/13 14:09:40;;;;;;;17.08;6.05;;;;;;;21.93;65.45;100054.69;5036881;28;20104;-80
2023/10/13 14:14:55;;;;;;;13.07;5.72;;;;;;;21.84;65.28;100039.97;5018361;28;20040;-81
2023/10/13 14:17:28;;;;;;;13.75;5.50;;;;;;;21.75;65.91;100050.75;5024228;28;20026;-81
2023/10/13 14:19:56;;;;;;;16.35;6.07;;;;;;;21.75;65.97;100050.75;5029967;28;20038;-81
2023/10/13 14:22:24;;;;;;;15.80;5.55;;;;;;;21.56;67.48;100048.75;5028864;28;20139;-81
2023/10/13 14:24:54;;;;;;;16.27;5.90;;;;;;;21.50;67.28;100056.22;5033093;28;20088;-80
2023/10/13 14:27:23;;;;;;;14.88;5.60;;;;;;;21.48;67.89;100046.66;5032481;28;20079;-80
2023/10/13 14:29:52;;;;;;;15.15;6.60;;;;;;;21.41;68.39;100057.13;5033087;28;20030;-79
2023/10/13 14:32:19;;;;;;;19.42;7.88;;;;;;;21.35;68.76;100056.38;5034329;28;20021;-81
2023/10/13 14:34:53;;;;;;;11.30;5.45;;;;;;;21.32;67.23;100019.44;5030798;28;20623;-81
2023/10/13 14:37:26;;;;;;;17.75;6.03;;;;;;;21.39;67.41;100048.38;5031162;28;20036;-79
2023/10/13 14:39:56;;;;;;;20.77;6.53;;;;;;;21.35;67.59;100054.47;5032575;28;20052;-78
2023/10/13 14:42:25;;;;;;;13.50;5.32;;;;;;;21.36;67.56;100050.59;5031047;28;20611;-79
2023/10/13 14:44:55;;;;;;;15.40;5.70;;;;;;;21.37;67.30;100035.00;5032979;28;20029;-80
2023/10/13 14:47:24;;;;;;;13.85;5.28;;;;;;;21.32;67.29;100035.88;5032465;28;20131;-80
2023/10/13 14:50:19;;;;;;;16.55;6.00;;;;;;;21.26;67.61;100050.72;5039646;28;20116;-80
2023/10/13 14:52:45;;;;;;;14.68;5.95;;;;;;;21.30;67.48;100046.28;5035039;28;20531;-79
2023/10/13 14:55:21;;;;;;;14.30;5.65;;;;;;;21.25;67.64;100043.59;5029798;28;20025;-79
2023/10/13 14:57:49;;;;;;;15.27;5.30;;;;;;;21.17;67.69;100044.25;5019710;28;20136;-79
2023/10/13 15:00:15;;;;;;;15.32;5.55;;;;;;;21.21;67.34;100017.91;5030955;28;20037;-80
2023/10/13 15:02:47;;;;;;;15.38;5.45;;;;;;;21.14;67.70;100042.06;5029649;28;20029;-80
2023/10/13 15:05:16;;;;;;;17.77;5.63;;;;;;;21.10;68.67;100039.06;5031246;28;20033;-78
2023/10/13 15:07:46;;;;;;;14.82;4.90;;;;;;;21.09;67.16;100033.91;5031659;28;20429;-79
2023/10/13 15:10:15;;;;;;;13.52;5.00;;;;;;;21.15;67.02;100028.09;5031201;28;20673;-79
2023/10/13 15:12:46;;;;;;;14.05;5.10;;;;;;;21.18;67.12;100033.00;5027133;28;20024;-79
2023/10/13 15:15:21;;;;;;;15.73;5.30;;;;;;;21.18;67.14;100037.66;5030838;28;20033;-80
2023/10/13 15:17:46;;;;;;;13.98;5.13;;;;;;;21.13;67.08;100032.22;5029081;28;20025;-79
2023/10/13 15:20:18;;;;;;;16.08;5.85;;;;;;;21.08;67.22;100043.22;5033371;28;20038;-80
2023/10/13 15:22:44;;;;;;;15.85;4.90;;;;;;;21.13;66.84;100040.44;5023304;28;20044;-79
2023/10/13 15:25:20;;;;;;;14.55;5.20;;;;;;;21.05;67.44;100050.09;5025624;28;20041;-79
2023/10/13 15:27:55;;;;;;;14.02;4.72;;;;;;;21.11;67.03;100039.91;5012927;28;20040;-78
2023/10/13 15:30:23;;;;;;;18.85;5.20;;;;;;;21.14;66.38;100031.13;5027542;28;20151;-78
2023/10/13 15:32:49;;;;;;;14.20;5.57;;;;;;;21.23;66.46;100048.53;5027147;28;20026;-78
2023/10/13 15:35:15;;;;;;;11.90;4.88;;;;;;;21.04;67.33;100054.72;5029274;28;20029;-79
2023/10/13 15:37:41;;;;;;;16.25;5.40;;;;;;;21.10;67.08;100054.69;5027902;28;20088;-79
2023/10/13 15:40:15;;;;;;;14.10;5.22;;;;;;;21.17;66.76;100057.94;5015018;28;20124;-78
2023/10/13 15:42:41;;;;;;;15.02;5.13;;;;;;;21.13;67.24;100037.72;5027181;28;20029;-78
2023/10/13 15:45:16;;;;;;;15.48;4.70;;;;;;;21.13;66.59;100034.97;5029627;28;20453;-78